Time,TemperatureF,DewpointF,PressureIn,WindDirection,WindDirectionDegrees,WindSpeedMPH,WindSpeedGustMPH,Humidity,HourlyPrecipIn,Conditions,Clouds,dailyrainin,SoftwareType,DateUTC
2013-10-13 00:05:00,60.9,54.0,30.18,NNE,30,4.0,10.0,78,0.00,,,0.00,weatherlink.com 1.10,2013-10-13 04:05:00,
2013-10-13 00:20:00,60.7,54.0,30.19,North,4,7.0,9.0,78,0.00,,,0.00,weatherlink.com 1.10,2013-10-13 04:20:00,
2013-10-13 00:35:00,60.5,54.0,30.19,NNW,333,2.0,10.0,79,0.00,,,0.00,weatherlink.com 1.10,2013-10-13 04:35:00,
2013-10-13 00:50:00,60.4,54.0,30.19,ENE,61,2.0,11.0,79,0.00,,,0.00,weatherlink.com 1.10,2013-10-13 04:50:00,
2013-10-13 01:05:00,60.1,54.0,30.19,West,269,1.0,9.0,79,0.00,,,0.00,weatherlink.com 1.10,2013-10-13 05:05:00,
2013-10-13 01:20:00,59.9,53.0,30.19,NNE,19,1.0,7.0,79,0.00,,,0.00,weatherlink.com 1.10,2013-10-13 05:20:00,
2013-10-13 01:36:00,59.7,53.0,30.19,NE,48,2.0,8.0,79,0.00,,,0.00,weatherlink.com 1.10,2013-10-13 05:36:00,
2013-10-13 01:50:00,59.6,53.0,30.20,NE,49,2.0,7.0,79,0.00,,,0.00,weatherlink.com 1.10,2013-10-13 05:50:00,
2013-10-13 02:06:00,59.3,53.0,30.20,NNW,340,4.0,8.0,80,0.00,,,0.00,weatherlink.com 1.10,2013-10-13 06:06:00,
2013-10-13 02:21:00,59.0,53.0,30.20,NNE,20,4.0,6.0,80,0.00,,,0.00,weatherlink.com 1.10,2013-10-13 06:21:00,
2013-10-13 02:36:00,58.7,53.0,30.20,North,5,3.0,8.0,80,0.00,,,0.00,weatherlink.com 1.10,2013-10-13 06:36:00,
2013-10-13 02:51:00,58.3,52.0,30.20,North,354,6.0,7.0,80,0.00,,,0.00,weatherlink.com 1.10,2013-10-13 06:51:00,
2013-10-13 03:06:00,57.9,52.0,30.20,NE,36,2.0,8.0,81,0.00,,,0.00,weatherlink.com 1.10,2013-10-13 07:06:00,
2013-10-13 03:21:00,57.0,51.0,30.19,NNE,14,2.0,5.0,81,0.00,,,0.00,weatherlink.com 1.10,2013-10-13 07:21:00,
2013-10-13 03:36:00,-999.0,-99.9,30.19,North,-999,-999.0,-999.0,-999,0.00,,,0.00,weatherlink.com 1.10,2013-10-13 07:36:00,
2013-10-13 03:51:00,-999.0,-99.9,30.19,North,-999,-999.0,-999.0,-999,0.00,,,0.00,weatherlink.com 1.10,2013-10-13 07:51:00,
2013-10-13 04:06:00,-999.0,-99.9,30.19,North,-999,-999.0,-999.0,-999,0.00,,,0.00,weatherlink.com 1.10,2013-10-13 08:06:00,
2013-10-13 04:21:00,-999.0,-99.9,30.19,North,-999,-999.0,-999.0,-999,0.00,,,0.00,weatherlink.com 1.10,2013-10-13 08:21:00,
2013-10-13 04:36:00,-999.0,-99.9,30.20,North,-999,-999.0,-999.0,-999,0.00,,,0.00,weatherlink.com 1.10,2013-10-13 08:36:00,
2013-10-13 04:51:00,-999.0,-99.9,30.20,North,-999,-999.0,-999.0,-999,0.00,,,0.00,weatherlink.com 1.10,2013-10-13 08:51:00,
2013-10-13 05:06:00,-999.0,-99.9,30.20,North,-999,-999.0,-999.0,-999,0.00,,,0.00,weatherlink.com 1.10,2013-10-13 09:06:00,
2013-10-13 05:21:00,-999.0,-99.9,30.20,North,-999,-999.0,-999.0,-999,0.00,,,0.00,weatherlink.com 1.10,2013-10-13 09:21:00,
2013-10-13 05:36:00,-999.0,-99.9,30.22,North,-999,-999.0,-999.0,-999,0.00,,,0.00,weatherlink.com 1.10,2013-10-13 09:36:00,
2013-10-13 05:51:00,-999.0,-99.9,30.23,North,-999,-999.0,-999.0,-999,0.00,,,0.00,weatherlink.com 1.10,2013-10-13 09:51:00,
2013-10-13 06:06:00,-999.0,-99.9,30.23,North,-999,-999.0,-999.0,-999,0.00,,,0.00,weatherlink.com 1.10,2013-10-13 10:06:00,
2013-10-13 06:22:00,-999.0,-99.9,30.24,North,-999,-999.0,-999.0,-999,0.00,,,0.00,weatherlink.com 1.10,2013-10-13 10:22:00,
2013-10-13 06:37:00,-999.0,-99.9,30.25,North,-999,-999.0,-999.0,-999,0.00,,,0.00,weatherlink.com 1.10,2013-10-13 10:37:00,
2013-10-13 06:57:00,-999.0,-99.9,30.25,North,-999,-999.0,-999.0,-999,0.00,,,0.00,weatherlink.com 1.10,2013-10-13 10:57:00,
2013-10-13 07:07:00,-999.0,-99.9,30.25,North,-999,-999.0,-999.0,-999,0.00,,,0.00,weatherlink.com 1.10,2013-10-13 11:07:00,
2013-10-13 07:22:00,-999.0,-99.9,30.26,North,-999,-999.0,-999.0,-999,0.00,,,0.00,weatherlink.com 1.10,2013-10-13 11:22:00,
2013-10-13 07:37:00,-999.0,-99.9,30.26,North,-999,-999.0,-999.0,-999,0.00,,,0.00,weatherlink.com 1.10,2013-10-13 11:37:00,
2013-10-13 07:52:00,-999.0,-99.9,30.27,North,-999,-999.0,-999.0,-999,0.00,,,0.00,weatherlink.com 1.10,2013-10-13 11:52:00,
2013-10-13 08:07:00,55.0,50.0,30.28,NW,318,4.0,9.0,83,0.00,,,0.00,weatherlink.com 1.10,2013-10-13 12:07:00,
2013-10-13 08:23:00,54.9,50.0,30.27,North,356,9.0,9.0,82,0.00,,,0.00,weatherlink.com 1.10,2013-10-13 12:23:00,
2013-10-13 08:37:00,55.2,50.0,30.27,North,350,4.0,7.0,82,0.00,,,0.00,weatherlink.com 1.10,2013-10-13 12:37:00,
2013-10-13 08:52:00,55.6,50.0,30.27,ENE,71,2.0,8.0,82,0.00,,,0.00,weatherlink.com 1.10,2013-10-13 12:52:00,
2013-10-13 09:07:00,55.6,50.0,30.28,East,89,2.0,11.0,81,0.00,,,0.00,weatherlink.com 1.10,2013-10-13 13:07:00,
2013-10-13 09:22:00,56.0,50.0,30.29,NE,50,6.0,12.0,81,0.00,,,0.00,weatherlink.com 1.10,2013-10-13 13:22:00,
2013-10-13 09:37:00,56.4,50.0,30.29,ENE,58,1.0,7.0,80,0.00,,,0.00,weatherlink.com 1.10,2013-10-13 13:37:00,
2013-10-13 09:52:00,56.8,50.0,30.30,NNE,23,2.0,10.0,79,0.00,,,0.00,weatherlink.com 1.10,2013-10-13 13:52:00,
2013-10-13 10:07:00,57.6,50.0,30.30,North,359,7.0,11.0,77,0.00,,,0.00,weatherlink.com 1.10,2013-10-13 14:07:00,
2013-10-13 10:22:00,58.0,50.0,30.30,NNE,16,5.0,11.0,76,0.00,,,0.00,weatherlink.com 1.10,2013-10-13 14:22:00,
2013-10-13 10:37:00,57.7,51.0,30.30,NNE,23,2.0,10.0,77,0.00,,,0.00,weatherlink.com 1.10,2013-10-13 14:37:00,
2013-10-13 10:52:00,58.6,51.0,30.30,NE,46,3.0,14.0,75,0.00,,,0.00,weatherlink.com 1.10,2013-10-13 14:52:00,
2013-10-13 11:07:00,59.0,51.0,30.30,NNW,345,4.0,16.0,74,0.00,,,0.00,weatherlink.com 1.10,2013-10-13 15:07:00,
2013-10-13 11:22:00,59.8,52.0,30.30,NE,50,5.0,12.0,75,0.00,,,0.00,weatherlink.com 1.10,2013-10-13 15:22:00,
2013-10-13 11:37:00,60.2,52.0,30.30,North,5,4.0,8.0,74,0.00,,,0.00,weatherlink.com 1.10,2013-10-13 15:37:00,
2013-10-13 11:52:00,59.4,51.0,30.31,NNW,343,2.0,10.0,73,0.00,,,0.00,weatherlink.com 1.10,2013-10-13 15:52:00,
2013-10-13 12:07:00,60.2,52.0,30.31,NNW,329,3.0,10.0,74,0.00,,,0.00,weatherlink.com 1.10,2013-10-13 16:07:00,
2013-10-13 12:22:00,60.6,52.0,30.30,WNW,285,1.0,9.0,74,0.00,,,0.00,weatherlink.com 1.10,2013-10-13 16:22:00,
2013-10-13 12:37:00,61.2,52.0,30.29,North,6,2.0,10.0,72,0.00,,,0.00,weatherlink.com 1.10,2013-10-13 16:37:00,
2013-10-13 12:52:00,61.9,53.0,30.29,NE,46,5.0,6.0,73,0.00,,,0.00,weatherlink.com 1.10,2013-10-13 16:52:00,
2013-10-13 13:07:00,62.2,52.0,30.29,NNW,329,5.0,8.0,70,0.00,,,0.00,weatherlink.com 1.10,2013-10-13 17:07:00,
2013-10-13 13:22:00,62.0,53.0,30.28,WNW,283,4.0,8.0,73,0.00,,,0.00,weatherlink.com 1.10,2013-10-13 17:22:00,
2013-10-13 13:37:00,62.4,52.0,30.28,NW,316,5.0,9.0,70,0.00,,,0.00,weatherlink.com 1.10,2013-10-13 17:37:00,
2013-10-13 13:52:00,62.7,53.0,30.27,ENE,72,4.0,7.0,70,0.00,,,0.00,weatherlink.com 1.10,2013-10-13 17:52:00,
2013-10-13 14:07:00,62.8,53.0,30.27,NNW,346,6.0,11.0,70,0.00,,,0.00,weatherlink.com 1.10,2013-10-13 18:07:00,
2013-10-13 14:22:00,62.5,52.0,30.27,ENE,60,3.0,8.0,69,0.00,,,0.00,weatherlink.com 1.10,2013-10-13 18:22:00,
2013-10-13 14:37:00,63.8,53.0,30.26,ENE,70,4.0,6.0,67,0.00,,,0.00,weatherlink.com 1.10,2013-10-13 18:37:00,
2013-10-13 14:52:00,63.5,52.0,30.26,ENE,77,8.0,11.0,67,0.00,,,0.00,weatherlink.com 1.10,2013-10-13 18:52:00,
2013-10-13 15:07:00,63.7,52.0,30.25,East,79,2.0,10.0,67,0.00,,,0.00,weatherlink.com 1.10,2013-10-13 19:07:00,
2013-10-13 15:22:00,64.3,53.0,30.25,East,89,4.0,8.0,67,0.00,,,0.00,weatherlink.com 1.10,2013-10-13 19:22:00,
2013-10-13 15:37:00,64.9,54.0,30.24,ENE,77,5.0,5.0,67,0.00,,,0.00,weatherlink.com 1.10,2013-10-13 19:37:00,
2013-10-13 15:53:00,64.9,54.0,30.24,ENE,64,6.0,8.0,67,0.00,,,0.00,weatherlink.com 1.10,2013-10-13 19:53:00,
2013-10-13 16:07:00,64.2,53.0,30.24,East,96,4.0,11.0,68,0.00,,,0.00,weatherlink.com 1.10,2013-10-13 20:07:00,
2013-10-13 16:23:00,64.0,54.0,30.24,NNW,347,4.0,7.0,69,0.00,,,0.00,weatherlink.com 1.10,2013-10-13 20:23:00,
2013-10-13 16:38:00,63.6,53.0,30.24,NNE,27,2.0,8.0,68,0.00,,,0.00,weatherlink.com 1.10,2013-10-13 20:38:00,
2013-10-13 16:53:00,63.4,53.0,30.24,North,4,1.0,8.0,69,0.00,,,0.00,weatherlink.com 1.10,2013-10-13 20:53:00,
2013-10-13 17:08:00,63.5,53.0,30.24,NE,43,2.0,7.0,69,0.00,,,0.00,weatherlink.com 1.10,2013-10-13 21:08:00,
2013-10-13 17:23:00,62.6,53.0,30.24,NNE,25,4.0,5.0,71,0.00,,,0.00,weatherlink.com 1.10,2013-10-13 21:23:00,
2013-10-13 17:38:00,62.0,53.0,30.24,North,350,2.0,5.0,72,0.00,,,0.00,weatherlink.com 1.10,2013-10-13 21:38:00,
2013-10-13 17:53:00,61.2,53.0,30.25,North,359,1.0,4.0,74,0.00,,,0.00,weatherlink.com 1.10,2013-10-13 21:53:00,
2013-10-13 18:08:00,60.7,53.0,30.25,North,360,0.0,2.0,76,0.00,,,0.00,weatherlink.com 1.10,2013-10-13 22:08:00,
2013-10-13 18:23:00,60.0,53.0,30.25,North,1,2.0,3.0,77,0.00,,,0.00,weatherlink.com 1.10,2013-10-13 22:23:00,
2013-10-13 18:38:00,59.7,53.0,30.26,NE,44,1.0,1.0,78,0.00,,,0.00,weatherlink.com 1.10,2013-10-13 22:38:00,
2013-10-13 18:53:00,59.5,53.0,30.26,ENE,75,1.0,2.0,79,0.00,,,0.00,weatherlink.com 1.10,2013-10-13 22:53:00,
2013-10-13 19:08:00,58.7,53.0,30.26,ENE,70,0.0,3.0,80,0.00,,,0.00,weatherlink.com 1.10,2013-10-13 23:08:00,
2013-10-13 19:23:00,57.6,52.0,30.27,NE,56,0.0,1.0,82,0.00,,,0.00,weatherlink.com 1.10,2013-10-13 23:23:00,
2013-10-13 19:38:00,55.6,52.0,30.27,NE,56,1.0,1.0,86,0.00,,,0.00,weatherlink.com 1.10,2013-10-13 23:38:00,
2013-10-13 19:53:00,54.4,51.0,30.27,ENE,57,0.0,1.0,87,0.00,,,0.00,weatherlink.com 1.10,2013-10-13 23:53:00,
2013-10-13 20:08:00,53.2,50.0,30.27,NNE,20,0.0,0.0,90,0.00,,,0.00,weatherlink.com 1.10,2013-10-14 00:08:00,
2013-10-13 20:23:00,52.3,50.0,30.28,NW,318,0.0,1.0,91,0.00,,,0.00,weatherlink.com 1.10,2013-10-14 00:23:00,
2013-10-13 20:38:00,51.8,50.0,30.28,NW,317,0.0,0.0,92,0.00,,,0.00,weatherlink.com 1.10,2013-10-14 00:38:00,
2013-10-13 20:53:00,51.1,49.0,30.29,WNW,287,0.0,1.0,92,0.00,,,0.00,weatherlink.com 1.10,2013-10-14 00:53:00,
2013-10-13 21:08:00,50.8,49.0,30.29,WNW,287,0.0,1.0,93,0.00,,,0.00,weatherlink.com 1.10,2013-10-14 01:08:00,
2013-10-13 21:24:00,51.0,49.0,30.29,WNW,287,0.0,0.0,94,0.00,,,0.00,weatherlink.com 1.10,2013-10-14 01:24:00,
2013-10-13 21:39:00,51.6,50.0,30.29,WNW,283,0.0,0.0,94,0.00,,,0.00,weatherlink.com 1.10,2013-10-14 01:39:00,
2013-10-13 21:54:00,51.4,50.0,30.30,WNW,283,0.0,0.0,93,0.00,,,0.00,weatherlink.com 1.10,2013-10-14 01:54:00,
2013-10-13 22:09:00,51.4,50.0,30.30,WNW,284,0.0,0.0,94,0.00,,,0.00,weatherlink.com 1.10,2013-10-14 02:09:00,
2013-10-13 22:24:00,51.7,50.0,30.30,WNW,284,0.0,0.0,94,0.00,,,0.00,weatherlink.com 1.10,2013-10-14 02:24:00,
2013-10-13 22:39:00,51.5,50.0,30.30,WNW,283,0.0,0.0,94,0.00,,,0.00,weatherlink.com 1.10,2013-10-14 02:39:00,
2013-10-13 22:54:00,51.5,50.0,30.30,WNW,289,0.0,0.0,94,0.00,,,0.00,weatherlink.com 1.10,2013-10-14 02:54:00,
2013-10-13 23:09:00,50.7,49.0,30.30,WNW,290,0.0,0.0,93,0.00,,,0.00,weatherlink.com 1.10,2013-10-14 03:09:00,
2013-10-13 23:24:00,49.9,48.0,30.30,WNW,287,0.0,0.0,94,0.00,,,0.00,weatherlink.com 1.10,2013-10-14 03:24:00,
2013-10-13 23:39:00,49.5,48.0,30.29,WNW,287,0.0,0.0,94,0.00,,,0.00,weatherlink.com 1.10,2013-10-14 03:39:00,
2013-10-13 23:54:00,48.7,47.0,30.29,WNW,287,0.0,0.0,94,0.00,,,0.00,weatherlink.com 1.10,2013-10-14 03:54:00,